Vercheres, Canada
Current Conditions -  °F | °C
As of 12:00 PM on Friday 24 Oct 2014 (Local Time) from CYHU Reporting Station
Overcast Overcast  
Wind Chill: 50°   Ceiling: 3200
Heat Index: 50°   Visibility: 9mi
Dew Point: 41°   Wind: 8mph
Humidity: 71%   Direction: 20°NNE
Pressure: 29.88"   Gusts: NA
Location:  45.77°N, 73.35°W
Report Text: CYHU 241600Z AUTO 02007KT 9SM OVC032 10/05 A2988 RMK SLP119
Loading
Personal Weather Stations






























Interactive Weather Map
Tropical Storm Tracking
New forecast layout! Learn more

10-Day Weather Forecast

Advertisements
Track Severe Weather on mobile